sensor_id;sensor_type;location;lat;lon;timestamp;P1;durP1;ratioP1;P2;durP2;ratioP2
14165;SDS011;7162;52.422;13.754;2023-08-06T00:02:13;5.73;;;4.40;;
14165;SDS011;7162;52.422;13.754;2023-08-06T00:04:40;5.67;;;3.87;;
14165;SDS011;7162;52.422;13.754;2023-08-06T00:07:07;5.43;;;3.93;;
14165;SDS011;7162;52.422;13.754;2023-08-06T00:09:34;6.43;;;4.23;;
14165;SDS011;7162;52.422;13.754;2023-08-06T00:12:01;5.40;;;4.07;;
14165;SDS011;7162;52.422;13.754;2023-08-06T00:14:28;5.63;;;4.43;;
14165;SDS011;7162;52.422;13.754;2023-08-06T00:16:57;9.53;;;4.30;;
14165;SDS011;7162;52.422;13.754;2023-08-06T00:19:24;5.00;;;4.30;;
14165;SDS011;7162;52.422;13.754;2023-08-06T00:21:51;5.50;;;4.30;;
14165;SDS011;7162;52.422;13.754;2023-08-06T00:24:18;5.40;;;4.63;;
14165;SDS011;7162;52.422;13.754;2023-08-06T00:26:45;6.50;;;4.20;;
14165;SDS011;7162;52.422;13.754;2023-08-06T00:29:12;5.70;;;4.70;;
14165;SDS011;7162;52.422;13.754;2023-08-06T00:31:39;6.63;;;5.20;;
14165;SDS011;7162;52.422;13.754;2023-08-06T00:34:08;4.70;;;4.30;;
14165;SDS011;7162;52.422;13.754;2023-08-06T00:36:34;10.60;;;4.83;;
14165;SDS011;7162;52.422;13.754;2023-08-06T00:39:02;5.67;;;4.33;;
14165;SDS011;7162;52.422;13.754;2023-08-06T00:41:29;4.40;;;4.00;;
14165;SDS011;7162;52.422;13.754;2023-08-06T00:43:56;5.23;;;3.93;;
14165;SDS011;7162;52.422;13.754;2023-08-06T00:46:23;8.70;;;4.27;;
14165;SDS011;7162;52.422;13.754;2023-08-06T00:48:50;6.93;;;4.20;;
14165;SDS011;7162;52.422;13.754;2023-08-06T00:51:19;4.67;;;4.07;;
14165;SDS011;7162;52.422;13.754;2023-08-06T00:53:46;4.50;;;3.60;;
14165;SDS011;7162;52.422;13.754;2023-08-06T00:56:13;6.03;;;4.30;;
14165;SDS011;7162;52.422;13.754;2023-08-06T00:58:40;6.47;;;4.50;;
14165;SDS011;7162;52.422;13.754;2023-08-06T01:01:08;5.60;;;4.00;;
14165;SDS011;7162;52.422;13.754;2023-08-06T01:03:35;6.53;;;4.50;;
14165;SDS011;7162;52.422;13.754;2023-08-06T01:06:02;4.67;;;3.97;;
14165;SDS011;7162;52.422;13.754;2023-08-06T01:08:33;4.57;;;4.10;;
14165;SDS011;7162;52.422;13.754;2023-08-06T01:11:08;5.53;;;3.83;;
14165;SDS011;7162;52.422;13.754;2023-08-06T01:13:38;5.60;;;4.23;;
14165;SDS011;7162;52.422;13.754;2023-08-06T01:16:08;5.40;;;3.83;;
14165;SDS011;7162;52.422;13.754;2023-08-06T01:18:35;4.83;;;3.80;;
14165;SDS011;7162;52.422;13.754;2023-08-06T01:21:05;4.77;;;4.27;;
14165;SDS011;7162;52.422;13.754;2023-08-06T01:23:32;4.83;;;4.00;;
14165;SDS011;7162;52.422;13.754;2023-08-06T01:26:01;6.00;;;4.00;;
14165;SDS011;7162;52.422;13.754;2023-08-06T01:28:32;5.87;;;3.50;;
14165;SDS011;7162;52.422;13.754;2023-08-06T01:31:01;4.10;;;3.70;;
14165;SDS011;7162;52.422;13.754;2023-08-06T01:33:28;4.53;;;4.13;;
14165;SDS011;7162;52.422;13.754;2023-08-06T01:35:59;5.87;;;4.13;;
14165;SDS011;7162;52.422;13.754;2023-08-06T01:38:27;6.93;;;4.20;;
14165;SDS011;7162;52.422;13.754;2023-08-06T01:40:54;5.53;;;3.57;;
14165;SDS011;7162;52.422;13.754;2023-08-06T01:43:21;5.77;;;3.60;;
14165;SDS011;7162;52.422;13.754;2023-08-06T01:45:48;4.63;;;3.90;;
14165;SDS011;7162;52.422;13.754;2023-08-06T01:48:15;4.20;;;3.67;;
14165;SDS011;7162;52.422;13.754;2023-08-06T01:50:42;3.77;;;3.37;;
14165;SDS011;7162;52.422;13.754;2023-08-06T01:53:09;11.97;;;3.50;;
14165;SDS011;7162;52.422;13.754;2023-08-06T01:55:37;6.83;;;3.93;;
14165;SDS011;7162;52.422;13.754;2023-08-06T01:58:04;4.60;;;3.47;;
14165;SDS011;7162;52.422;13.754;2023-08-06T02:00:31;3.73;;;3.33;;
14165;SDS011;7162;52.422;13.754;2023-08-06T02:02:58;4.73;;;4.23;;
14165;SDS011;7162;52.422;13.754;2023-08-06T02:05:25;4.70;;;3.60;;
14165;SDS011;7162;52.422;13.754;2023-08-06T02:07:52;5.30;;;4.13;;
14165;SDS011;7162;52.422;13.754;2023-08-06T02:10:19;7.57;;;3.87;;
14165;SDS011;7162;52.422;13.754;2023-08-06T02:12:47;4.80;;;4.07;;
14165;SDS011;7162;52.422;13.754;2023-08-06T02:15:14;4.77;;;3.87;;
14165;SDS011;7162;52.422;13.754;2023-08-06T02:17:41;4.60;;;3.30;;
14165;SDS011;7162;52.422;13.754;2023-08-06T02:20:08;3.67;;;3.20;;
14165;SDS011;7162;52.422;13.754;2023-08-06T02:22:35;4.47;;;3.70;;
14165;SDS011;7162;52.422;13.754;2023-08-06T02:25:02;4.57;;;3.70;;
14165;SDS011;7162;52.422;13.754;2023-08-06T02:27:29;4.20;;;3.63;;
14165;SDS011;7162;52.422;13.754;2023-08-06T02:29:58;3.97;;;3.57;;
14165;SDS011;7162;52.422;13.754;2023-08-06T02:32:25;4.20;;;3.40;;
14165;SDS011;7162;52.422;13.754;2023-08-06T02:34:52;6.20;;;4.30;;
14165;SDS011;7162;52.422;13.754;2023-08-06T02:37:19;5.53;;;3.50;;
14165;SDS011;7162;52.422;13.754;2023-08-06T02:39:46;6.50;;;3.40;;
14165;SDS011;7162;52.422;13.754;2023-08-06T02:42:13;4.83;;;3.57;;
14165;SDS011;7162;52.422;13.754;2023-08-06T02:44:40;3.43;;;3.13;;
14165;SDS011;7162;52.422;13.754;2023-08-06T02:47:08;4.50;;;3.23;;
14165;SDS011;7162;52.422;13.754;2023-08-06T02:49:35;4.27;;;3.87;;
14165;SDS011;7162;52.422;13.754;2023-08-06T02:52:02;4.20;;;3.80;;
14165;SDS011;7162;52.422;13.754;2023-08-06T02:54:29;8.80;;;4.13;;
14165;SDS011;7162;52.422;13.754;2023-08-06T02:56:56;4.60;;;3.67;;
14165;SDS011;7162;52.422;13.754;2023-08-06T02:59:23;6.17;;;3.90;;
14165;SDS011;7162;52.422;13.754;2023-08-06T03:01:50;4.63;;;3.40;;
14165;SDS011;7162;52.422;13.754;2023-08-06T03:04:18;4.00;;;3.50;;
14165;SDS011;7162;52.422;13.754;2023-08-06T03:06:45;5.00;;;3.80;;
14165;SDS011;7162;52.422;13.754;2023-08-06T03:09:12;3.57;;;3.13;;
14165;SDS011;7162;52.422;13.754;2023-08-06T03:11:39;4.53;;;3.70;;
14165;SDS011;7162;52.422;13.754;2023-08-06T03:14:06;3.70;;;3.23;;
14165;SDS011;7162;52.422;13.754;2023-08-06T03:16:33;4.10;;;3.37;;
14165;SDS011;7162;52.422;13.754;2023-08-06T03:19:00;7.37;;;3.80;;
14165;SDS011;7162;52.422;13.754;2023-08-06T03:21:28;6.30;;;4.27;;
14165;SDS011;7162;52.422;13.754;2023-08-06T03:23:55;8.80;;;4.27;;
14165;SDS011;7162;52.422;13.754;2023-08-06T03:26:22;5.17;;;3.87;;
14165;SDS011;7162;52.422;13.754;2023-08-06T03:28:49;5.33;;;3.43;;
14165;SDS011;7162;52.422;13.754;2023-08-06T03:31:16;3.60;;;3.30;;
14165;SDS011;7162;52.422;13.754;2023-08-06T03:33:43;4.83;;;2.80;;
14165;SDS011;7162;52.422;13.754;2023-08-06T03:36:10;10.30;;;7.10;;
14165;SDS011;7162;52.422;13.754;2023-08-06T03:38:39;9.53;;;6.33;;
14165;SDS011;7162;52.422;13.754;2023-08-06T03:41:05;6.43;;;3.90;;
14165;SDS011;7162;52.422;13.754;2023-08-06T03:43:32;4.50;;;3.70;;
14165;SDS011;7162;52.422;13.754;2023-08-06T03:45:59;6.70;;;3.60;;
14165;SDS011;7162;52.422;13.754;2023-08-06T03:48:26;5.30;;;3.80;;
14165;SDS011;7162;52.422;13.754;2023-08-06T03:50:53;4.40;;;3.70;;
14165;SDS011;7162;52.422;13.754;2023-08-06T03:53:20;4.97;;;4.00;;
14165;SDS011;7162;52.422;13.754;2023-08-06T03:55:49;4.13;;;3.73;;
14165;SDS011;7162;52.422;13.754;2023-08-06T03:58:16;3.83;;;3.43;;
14165;SDS011;7162;52.422;13.754;2023-08-06T04:00:43;7.30;;;4.00;;
14165;SDS011;7162;52.422;13.754;2023-08-06T04:03:09;7.50;;;3.80;;
14165;SDS011;7162;52.422;13.754;2023-08-06T04:05:36;5.13;;;4.37;;
14165;SDS011;7162;52.422;13.754;2023-08-06T04:08:03;5.10;;;3.83;;
14165;SDS011;7162;52.422;13.754;2023-08-06T04:10:30;6.40;;;4.10;;
14165;SDS011;7162;52.422;13.754;2023-08-06T04:12:59;4.40;;;3.77;;
14165;SDS011;7162;52.422;13.754;2023-08-06T04:15:26;5.00;;;4.03;;
14165;SDS011;7162;52.422;13.754;2023-08-06T04:17:52;5.33;;;4.00;;
14165;SDS011;7162;52.422;13.754;2023-08-06T04:20:21;5.20;;;4.40;;
14165;SDS011;7162;52.422;13.754;2023-08-06T04:22:48;4.30;;;3.90;;
14165;SDS011;7162;52.422;13.754;2023-08-06T04:25:15;7.00;;;4.07;;
14165;SDS011;7162;52.422;13.754;2023-08-06T04:27:45;4.47;;;3.63;;
14165;SDS011;7162;52.422;13.754;2023-08-06T04:30:14;4.50;;;3.70;;
14165;SDS011;7162;52.422;13.754;2023-08-06T04:32:41;3.50;;;3.20;;
14165;SDS011;7162;52.422;13.754;2023-08-06T04:35:08;5.93;;;3.93;;
14165;SDS011;7162;52.422;13.754;2023-08-06T04:37:35;6.23;;;4.63;;
14165;SDS011;7162;52.422;13.754;2023-08-06T04:40:02;5.33;;;3.50;;
14165;SDS011;7162;52.422;13.754;2023-08-06T04:42:29;5.67;;;4.20;;
14165;SDS011;7162;52.422;13.754;2023-08-06T04:44:56;5.20;;;4.30;;
14165;SDS011;7162;52.422;13.754;2023-08-06T04:47:24;4.00;;;3.60;;
14165;SDS011;7162;52.422;13.754;2023-08-06T04:49:51;7.50;;;4.27;;
14165;SDS011;7162;52.422;13.754;2023-08-06T04:52:18;7.47;;;3.60;;
14165;SDS011;7162;52.422;13.754;2023-08-06T04:54:45;3.93;;;3.53;;
14165;SDS011;7162;52.422;13.754;2023-08-06T04:57:12;6.00;;;4.20;;
14165;SDS011;7162;52.422;13.754;2023-08-06T04:59:39;8.90;;;3.87;;
14165;SDS011;7162;52.422;13.754;2023-08-06T05:02:06;4.47;;;4.07;;
14165;SDS011;7162;52.422;13.754;2023-08-06T05:04:34;4.97;;;4.00;;
14165;SDS011;7162;52.422;13.754;2023-08-06T05:07:01;4.03;;;3.60;;
14165;SDS011;7162;52.422;13.754;2023-08-06T05:09:28;6.90;;;3.70;;
14165;SDS011;7162;52.422;13.754;2023-08-06T05:11:55;6.20;;;3.70;;
14165;SDS011;7162;52.422;13.754;2023-08-06T05:14:22;4.37;;;3.40;;
14165;SDS011;7162;52.422;13.754;2023-08-06T05:16:49;6.47;;;3.37;;
14165;SDS011;7162;52.422;13.754;2023-08-06T05:19:16;3.73;;;3.10;;
14165;SDS011;7162;52.422;13.754;2023-08-06T05:21:44;3.83;;;3.43;;
14165;SDS011;7162;52.422;13.754;2023-08-06T05:24:11;4.47;;;3.20;;
14165;SDS011;7162;52.422;13.754;2023-08-06T05:26:38;4.53;;;3.33;;
14165;SDS011;7162;52.422;13.754;2023-08-06T05:29:05;3.57;;;3.27;;
14165;SDS011;7162;52.422;13.754;2023-08-06T05:31:32;4.07;;;3.43;;
14165;SDS011;7162;52.422;13.754;2023-08-06T05:33:59;5.93;;;3.90;;
14165;SDS011;7162;52.422;13.754;2023-08-06T05:36:26;4.20;;;3.70;;
14165;SDS011;7162;52.422;13.754;2023-08-06T05:38:54;3.73;;;3.30;;
14165;SDS011;7162;52.422;13.754;2023-08-06T05:41:21;5.20;;;3.30;;
14165;SDS011;7162;52.422;13.754;2023-08-06T05:43:48;5.50;;;3.80;;
14165;SDS011;7162;52.422;13.754;2023-08-06T05:46:15;4.10;;;3.70;;
14165;SDS011;7162;52.422;13.754;2023-08-06T05:48:42;3.90;;;3.53;;
14165;SDS011;7162;52.422;13.754;2023-08-06T05:51:09;4.07;;;2.97;;
14165;SDS011;7162;52.422;13.754;2023-08-06T05:53:37;6.60;;;3.20;;
14165;SDS011;7162;52.422;13.754;2023-08-06T05:56:06;3.43;;;3.10;;
14165;SDS011;7162;52.422;13.754;2023-08-06T05:58:33;3.80;;;2.97;;
14165;SDS011;7162;52.422;13.754;2023-08-06T06:01:00;3.23;;;2.93;;
14165;SDS011;7162;52.422;13.754;2023-08-06T06:03:27;4.37;;;2.83;;
14165;SDS011;7162;52.422;13.754;2023-08-06T06:05:53;3.20;;;2.90;;
14165;SDS011;7162;52.422;13.754;2023-08-06T06:08:20;4.20;;;3.43;;
14165;SDS011;7162;52.422;13.754;2023-08-06T06:10:47;5.87;;;3.60;;
14165;SDS011;7162;52.422;13.754;2023-08-06T06:13:16;4.23;;;3.47;;
14165;SDS011;7162;52.422;13.754;2023-08-06T06:15:43;5.37;;;3.43;;
14165;SDS011;7162;52.422;13.754;2023-08-06T06:18:10;10.93;;;7.67;;
14165;SDS011;7162;52.422;13.754;2023-08-06T06:20:36;4.47;;;3.20;;
14165;SDS011;7162;52.422;13.754;2023-08-06T06:23:03;4.87;;;3.93;;
14165;SDS011;7162;52.422;13.754;2023-08-06T06:25:30;9.27;;;6.13;;
14165;SDS011;7162;52.422;13.754;2023-08-06T06:27:57;7.47;;;4.40;;
14165;SDS011;7162;52.422;13.754;2023-08-06T06:30:26;9.53;;;6.00;;
14165;SDS011;7162;52.422;13.754;2023-08-06T06:32:53;6.03;;;4.57;;
14165;SDS011;7162;52.422;13.754;2023-08-06T06:35:20;6.37;;;4.60;;
14165;SDS011;7162;52.422;13.754;2023-08-06T06:37:47;8.60;;;4.50;;
14165;SDS011;7162;52.422;13.754;2023-08-06T06:40:14;5.90;;;4.50;;
14165;SDS011;7162;52.422;13.754;2023-08-06T06:42:41;4.93;;;4.20;;
14165;SDS011;7162;52.422;13.754;2023-08-06T06:45:09;7.47;;;5.23;;
14165;SDS011;7162;52.422;13.754;2023-08-06T06:47:37;5.40;;;4.83;;
14165;SDS011;7162;52.422;13.754;2023-08-06T06:50:05;6.90;;;4.80;;
14165;SDS011;7162;52.422;13.754;2023-08-06T06:52:32;5.63;;;4.50;;
14165;SDS011;7162;52.422;13.754;2023-08-06T06:54:59;5.20;;;4.40;;
14165;SDS011;7162;52.422;13.754;2023-08-06T06:57:26;6.53;;;4.83;;
14165;SDS011;7162;52.422;13.754;2023-08-06T06:59:53;6.93;;;4.90;;
14165;SDS011;7162;52.422;13.754;2023-08-06T07:02:20;4.40;;;4.00;;
14165;SDS011;7162;52.422;13.754;2023-08-06T07:04:49;5.33;;;4.50;;
14165;SDS011;7162;52.422;13.754;2023-08-06T07:07:16;10.23;;;5.67;;
14165;SDS011;7162;52.422;13.754;2023-08-06T07:09:44;7.87;;;5.53;;
14165;SDS011;7162;52.422;13.754;2023-08-06T07:12:11;10.40;;;5.50;;
14165;SDS011;7162;52.422;13.754;2023-08-06T07:14:38;8.63;;;5.80;;
14165;SDS011;7162;52.422;13.754;2023-08-06T07:17:05;7.20;;;4.60;;
14165;SDS011;7162;52.422;13.754;2023-08-06T07:19:32;6.10;;;4.57;;
14165;SDS011;7162;52.422;13.754;2023-08-06T07:22:00;7.83;;;4.90;;
14165;SDS011;7162;52.422;13.754;2023-08-06T07:24:27;5.37;;;4.47;;
14165;SDS011;7162;52.422;13.754;2023-08-06T07:26:54;7.60;;;5.00;;
14165;SDS011;7162;52.422;13.754;2023-08-06T07:29:21;8.97;;;5.80;;
14165;SDS011;7162;52.422;13.754;2023-08-06T07:31:48;10.90;;;6.70;;
14165;SDS011;7162;52.422;13.754;2023-08-06T07:34:15;8.33;;;5.37;;
14165;SDS011;7162;52.422;13.754;2023-08-06T07:36:43;5.43;;;4.90;;
14165;SDS011;7162;52.422;13.754;2023-08-06T07:39:11;9.03;;;5.37;;
14165;SDS011;7162;52.422;13.754;2023-08-06T07:41:38;5.13;;;4.33;;
14165;SDS011;7162;52.422;13.754;2023-08-06T07:44:06;8.20;;;5.53;;
14165;SDS011;7162;52.422;13.754;2023-08-06T07:46:33;5.90;;;4.73;;
14165;SDS011;7162;52.422;13.754;2023-08-06T07:49:00;5.90;;;5.30;;
14165;SDS011;7162;52.422;13.754;2023-08-06T07:51:27;6.10;;;4.90;;
14165;SDS011;7162;52.422;13.754;2023-08-06T07:53:54;22.47;;;14.27;;
14165;SDS011;7162;52.422;13.754;2023-08-06T07:56:22;8.60;;;6.13;;
14165;SDS011;7162;52.422;13.754;2023-08-06T07:58:49;7.60;;;5.50;;
14165;SDS011;7162;52.422;13.754;2023-08-06T08:01:16;8.07;;;5.83;;
14165;SDS011;7162;52.422;13.754;2023-08-06T08:03:43;12.33;;;6.40;;
14165;SDS011;7162;52.422;13.754;2023-08-06T08:06:10;8.00;;;6.00;;
14165;SDS011;7162;52.422;13.754;2023-08-06T08:08:37;9.90;;;6.40;;
14165;SDS011;7162;52.422;13.754;2023-08-06T08:11:05;8.90;;;5.90;;
14165;SDS011;7162;52.422;13.754;2023-08-06T08:13:33;7.67;;;5.93;;
14165;SDS011;7162;52.422;13.754;2023-08-06T08:16:00;13.77;;;8.97;;
14165;SDS011;7162;52.422;13.754;2023-08-06T08:18:27;15.53;;;9.93;;
14165;SDS011;7162;52.422;13.754;2023-08-06T08:20:56;9.73;;;6.60;;
14165;SDS011;7162;52.422;13.754;2023-08-06T08:23:23;7.77;;;5.83;;
14165;SDS011;7162;52.422;13.754;2023-08-06T08:25:50;8.07;;;6.40;;
14165;SDS011;7162;52.422;13.754;2023-08-06T08:28:17;8.00;;;5.87;;
14165;SDS011;7162;52.422;13.754;2023-08-06T08:30:45;9.23;;;6.50;;
14165;SDS011;7162;52.422;13.754;2023-08-06T08:33:12;7.73;;;6.27;;
14165;SDS011;7162;52.422;13.754;2023-08-06T08:35:40;10.70;;;7.23;;
14165;SDS011;7162;52.422;13.754;2023-08-06T08:38:06;10.50;;;6.73;;
14165;SDS011;7162;52.422;13.754;2023-08-06T08:40:33;10.63;;;7.37;;
14165;SDS011;7162;52.422;13.754;2023-08-06T08:43:07;9.73;;;6.10;;
14165;SDS011;7162;52.422;13.754;2023-08-06T08:45:34;7.30;;;6.17;;
14165;SDS011;7162;52.422;13.754;2023-08-06T08:48:03;10.33;;;6.33;;
14165;SDS011;7162;52.422;13.754;2023-08-06T08:50:30;9.57;;;6.20;;
14165;SDS011;7162;52.422;13.754;2023-08-06T08:52:57;6.87;;;5.90;;
14165;SDS011;7162;52.422;13.754;2023-08-06T08:55:24;7.40;;;6.43;;
14165;SDS011;7162;52.422;13.754;2023-08-06T08:57:51;7.07;;;6.07;;
14165;SDS011;7162;52.422;13.754;2023-08-06T09:00:18;7.67;;;6.23;;
14165;SDS011;7162;52.422;13.754;2023-08-06T09:02:45;12.30;;;8.07;;
14165;SDS011;7162;52.422;13.754;2023-08-06T09:05:14;10.70;;;7.67;;
14165;SDS011;7162;52.422;13.754;2023-08-06T09:07:42;10.67;;;7.20;;
14165;SDS011;7162;52.422;13.754;2023-08-06T09:10:10;9.07;;;6.07;;
14165;SDS011;7162;52.422;13.754;2023-08-06T09:12:39;12.83;;;7.90;;
14165;SDS011;7162;52.422;13.754;2023-08-06T09:15:06;8.67;;;6.77;;
14165;SDS011;7162;52.422;13.754;2023-08-06T09:17:35;7.07;;;6.00;;
14165;SDS011;7162;52.422;13.754;2023-08-06T09:20:10;9.70;;;7.10;;
14165;SDS011;7162;52.422;13.754;2023-08-06T09:22:38;9.10;;;7.03;;
14165;SDS011;7162;52.422;13.754;2023-08-06T09:25:06;8.43;;;6.23;;
14165;SDS011;7162;52.422;13.754;2023-08-06T09:27:35;10.00;;;7.10;;
14165;SDS011;7162;52.422;13.754;2023-08-06T09:30:02;9.87;;;7.27;;
14165;SDS011;7162;52.422;13.754;2023-08-06T09:32:38;10.77;;;7.57;;
14165;SDS011;7162;52.422;13.754;2023-08-06T09:35:14;9.27;;;6.80;;
14165;SDS011;7162;52.422;13.754;2023-08-06T09:37:43;10.53;;;8.07;;
14165;SDS011;7162;52.422;13.754;2023-08-06T09:40:24;12.73;;;8.80;;
14165;SDS011;7162;52.422;13.754;2023-08-06T09:42:51;9.30;;;7.07;;
14165;SDS011;7162;52.422;13.754;2023-08-06T09:45:18;9.47;;;7.23;;
14165;SDS011;7162;52.422;13.754;2023-08-06T09:47:46;11.80;;;7.37;;
14165;SDS011;7162;52.422;13.754;2023-08-06T09:50:17;9.87;;;7.00;;
14165;SDS011;7162;52.422;13.754;2023-08-06T09:52:45;9.80;;;7.23;;
14165;SDS011;7162;52.422;13.754;2023-08-06T09:55:13;12.33;;;7.60;;
14165;SDS011;7162;52.422;13.754;2023-08-06T09:57:40;9.50;;;6.83;;
14165;SDS011;7162;52.422;13.754;2023-08-06T10:00:08;9.23;;;7.07;;
14165;SDS011;7162;52.422;13.754;2023-08-06T10:02:36;9.30;;;7.10;;
14165;SDS011;7162;52.422;13.754;2023-08-06T10:05:04;10.73;;;7.03;;
14165;SDS011;7162;52.422;13.754;2023-08-06T10:07:31;8.50;;;6.93;;
14165;SDS011;7162;52.422;13.754;2023-08-06T10:09:59;10.20;;;7.30;;
14165;SDS011;7162;52.422;13.754;2023-08-06T10:12:28;10.00;;;7.30;;
14165;SDS011;7162;52.422;13.754;2023-08-06T10:14:55;9.10;;;6.63;;
14165;SDS011;7162;52.422;13.754;2023-08-06T10:17:24;8.43;;;6.43;;
14165;SDS011;7162;52.422;13.754;2023-08-06T10:19:52;11.17;;;5.80;;
14165;SDS011;7162;52.422;13.754;2023-08-06T10:22:19;6.23;;;5.10;;
14165;SDS011;7162;52.422;13.754;2023-08-06T10:24:48;5.60;;;4.57;;
14165;SDS011;7162;52.422;13.754;2023-08-06T10:27:20;4.63;;;4.10;;
14165;SDS011;7162;52.422;13.754;2023-08-06T10:29:47;6.57;;;4.57;;
14165;SDS011;7162;52.422;13.754;2023-08-06T10:32:15;6.20;;;5.03;;
14165;SDS011;7162;52.422;13.754;2023-08-06T10:34:56;8.93;;;4.50;;
14165;SDS011;7162;52.422;13.754;2023-08-06T10:37:23;7.00;;;5.10;;
14165;SDS011;7162;52.422;13.754;2023-08-06T10:39:51;9.17;;;4.77;;
14165;SDS011;7162;52.422;13.754;2023-08-06T10:42:23;6.40;;;4.90;;
14165;SDS011;7162;52.422;13.754;2023-08-06T10:45:12;5.50;;;4.00;;
14165;SDS011;7162;52.422;13.754;2023-08-06T10:47:40;6.13;;;4.90;;
14165;SDS011;7162;52.422;13.754;2023-08-06T10:50:07;5.33;;;4.80;;
14165;SDS011;7162;52.422;13.754;2023-08-06T10:52:34;11.00;;;7.70;;
14165;SDS011;7162;52.422;13.754;2023-08-06T10:55:01;16.43;;;9.40;;
14165;SDS011;7162;52.422;13.754;2023-08-06T10:57:30;6.60;;;5.10;;
14165;SDS011;7162;52.422;13.754;2023-08-06T10:59:57;7.77;;;4.70;;
14165;SDS011;7162;52.422;13.754;2023-08-06T11:02:24;6.90;;;4.20;;
14165;SDS011;7162;52.422;13.754;2023-08-06T11:04:52;7.40;;;4.47;;
14165;SDS011;7162;52.422;13.754;2023-08-06T11:07:19;5.00;;;4.33;;
14165;SDS011;7162;52.422;13.754;2023-08-06T11:09:49;6.80;;;4.50;;
14165;SDS011;7162;52.422;13.754;2023-08-06T11:12:18;5.93;;;4.70;;
14165;SDS011;7162;52.422;13.754;2023-08-06T11:14:50;7.80;;;4.90;;
14165;SDS011;7162;52.422;13.754;2023-08-06T11:17:17;6.47;;;4.70;;
14165;SDS011;7162;52.422;13.754;2023-08-06T11:19:44;9.87;;;4.53;;
14165;SDS011;7162;52.422;13.754;2023-08-06T11:22:11;9.27;;;6.17;;
14165;SDS011;7162;52.422;13.754;2023-08-06T11:24:38;9.23;;;5.30;;
14165;SDS011;7162;52.422;13.754;2023-08-06T11:27:10;7.10;;;4.77;;
14165;SDS011;7162;52.422;13.754;2023-08-06T11:29:37;14.40;;;4.83;;
14165;SDS011;7162;52.422;13.754;2023-08-06T11:32:06;8.70;;;6.93;;
14165;SDS011;7162;52.422;13.754;2023-08-06T11:34:33;6.53;;;5.63;;
14165;SDS011;7162;52.422;13.754;2023-08-06T11:37:00;9.10;;;5.40;;
14165;SDS011;7162;52.422;13.754;2023-08-06T11:39:30;6.17;;;5.40;;
14165;SDS011;7162;52.422;13.754;2023-08-06T11:41:57;6.07;;;4.80;;
14165;SDS011;7162;52.422;13.754;2023-08-06T11:44:25;7.27;;;5.70;;
14165;SDS011;7162;52.422;13.754;2023-08-06T11:46:52;8.93;;;5.77;;
14165;SDS011;7162;52.422;13.754;2023-08-06T11:49:22;7.80;;;5.40;;
14165;SDS011;7162;52.422;13.754;2023-08-06T11:52:07;4.90;;;4.40;;
14165;SDS011;7162;52.422;13.754;2023-08-06T11:54:34;6.43;;;5.30;;
14165;SDS011;7162;52.422;13.754;2023-08-06T11:57:02;7.10;;;5.37;;
14165;SDS011;7162;52.422;13.754;2023-08-06T11:59:29;8.50;;;5.10;;
14165;SDS011;7162;52.422;13.754;2023-08-06T12:01:56;8.73;;;5.30;;
14165;SDS011;7162;52.422;13.754;2023-08-06T12:04:24;6.57;;;5.30;;
14165;SDS011;7162;52.422;13.754;2023-08-06T12:06:51;8.20;;;5.43;;
14165;SDS011;7162;52.422;13.754;2023-08-06T12:09:18;10.60;;;5.20;;
14165;SDS011;7162;52.422;13.754;2023-08-06T12:11:45;6.20;;;5.00;;
14165;SDS011;7162;52.422;13.754;2023-08-06T12:14:12;5.70;;;4.77;;
14165;SDS011;7162;52.422;13.754;2023-08-06T12:16:40;5.20;;;4.70;;
14165;SDS011;7162;52.422;13.754;2023-08-06T12:19:07;7.20;;;5.20;;
14165;SDS011;7162;52.422;13.754;2023-08-06T12:21:35;5.47;;;4.80;;
14165;SDS011;7162;52.422;13.754;2023-08-06T12:24:02;7.43;;;5.13;;
14165;SDS011;7162;52.422;13.754;2023-08-06T12:26:29;6.70;;;4.73;;
14165;SDS011;7162;52.422;13.754;2023-08-06T12:28:56;6.30;;;5.37;;
14165;SDS011;7162;52.422;13.754;2023-08-06T12:31:23;5.90;;;4.50;;
14165;SDS011;7162;52.422;13.754;2023-08-06T12:33:50;9.03;;;4.77;;
14165;SDS011;7162;52.422;13.754;2023-08-06T12:36:17;7.83;;;5.87;;
14165;SDS011;7162;52.422;13.754;2023-08-06T12:38:45;6.30;;;5.40;;
14165;SDS011;7162;52.422;13.754;2023-08-06T12:41:12;6.43;;;5.03;;
14165;SDS011;7162;52.422;13.754;2023-08-06T12:43:39;6.87;;;5.57;;
14165;SDS011;7162;52.422;13.754;2023-08-06T12:46:06;6.20;;;5.30;;
14165;SDS011;7162;52.422;13.754;2023-08-06T12:48:33;11.70;;;5.40;;
14165;SDS011;7162;52.422;13.754;2023-08-06T12:51:00;7.77;;;5.63;;
14165;SDS011;7162;52.422;13.754;2023-08-06T12:53:27;9.33;;;4.83;;
14165;SDS011;7162;52.422;13.754;2023-08-06T12:55:55;6.80;;;5.70;;
14165;SDS011;7162;52.422;13.754;2023-08-06T12:58:22;7.73;;;5.63;;
14165;SDS011;7162;52.422;13.754;2023-08-06T13:00:49;6.80;;;5.47;;
14165;SDS011;7162;52.422;13.754;2023-08-06T13:03:16;6.87;;;5.30;;
14165;SDS011;7162;52.422;13.754;2023-08-06T13:05:43;7.33;;;5.30;;
14165;SDS011;7162;52.422;13.754;2023-08-06T13:08:10;7.37;;;4.83;;
14165;SDS011;7162;52.422;13.754;2023-08-06T13:10:37;7.97;;;5.67;;
14165;SDS011;7162;52.422;13.754;2023-08-06T13:13:05;7.53;;;5.63;;
14165;SDS011;7162;52.422;13.754;2023-08-06T13:15:32;7.40;;;5.60;;
14165;SDS011;7162;52.422;13.754;2023-08-06T13:17:59;5.97;;;4.83;;
14165;SDS011;7162;52.422;13.754;2023-08-06T13:20:26;8.73;;;6.00;;
14165;SDS011;7162;52.422;13.754;2023-08-06T13:22:54;7.97;;;5.60;;
14165;SDS011;7162;52.422;13.754;2023-08-06T13:25:21;8.07;;;6.27;;
14165;SDS011;7162;52.422;13.754;2023-08-06T13:27:48;8.80;;;6.07;;
14165;SDS011;7162;52.422;13.754;2023-08-06T13:30:16;7.33;;;5.40;;
14165;SDS011;7162;52.422;13.754;2023-08-06T13:32:44;9.67;;;5.70;;
14165;SDS011;7162;52.422;13.754;2023-08-06T13:35:11;10.27;;;5.57;;
14165;SDS011;7162;52.422;13.754;2023-08-06T13:37:38;8.23;;;5.80;;
14165;SDS011;7162;52.422;13.754;2023-08-06T13:40:05;7.90;;;6.30;;
14165;SDS011;7162;52.422;13.754;2023-08-06T13:42:33;8.03;;;5.83;;
14165;SDS011;7162;52.422;13.754;2023-08-06T13:45:00;12.33;;;5.77;;
14165;SDS011;7162;52.422;13.754;2023-08-06T13:47:30;8.27;;;5.53;;
14165;SDS011;7162;52.422;13.754;2023-08-06T13:49:57;15.60;;;8.93;;
14165;SDS011;7162;52.422;13.754;2023-08-06T13:52:24;13.07;;;9.53;;
14165;SDS011;7162;52.422;13.754;2023-08-06T13:54:52;11.40;;;5.80;;
14165;SDS011;7162;52.422;13.754;2023-08-06T13:57:19;6.87;;;5.77;;
14165;SDS011;7162;52.422;13.754;2023-08-06T13:59:46;9.50;;;6.00;;
14165;SDS011;7162;52.422;13.754;2023-08-06T14:02:13;11.73;;;6.33;;
14165;SDS011;7162;52.422;13.754;2023-08-06T14:04:41;8.57;;;5.53;;
14165;SDS011;7162;52.422;13.754;2023-08-06T14:07:08;7.87;;;5.90;;
14165;SDS011;7162;52.422;13.754;2023-08-06T14:09:35;10.23;;;6.60;;
14165;SDS011;7162;52.422;13.754;2023-08-06T14:12:02;8.37;;;5.80;;
14165;SDS011;7162;52.422;13.754;2023-08-06T14:14:30;7.30;;;5.77;;
14165;SDS011;7162;52.422;13.754;2023-08-06T14:16:57;8.30;;;5.80;;
14165;SDS011;7162;52.422;13.754;2023-08-06T14:19:24;9.83;;;6.87;;
14165;SDS011;7162;52.422;13.754;2023-08-06T14:21:52;9.30;;;5.87;;
14165;SDS011;7162;52.422;13.754;2023-08-06T14:24:20;6.73;;;4.60;;
14165;SDS011;7162;52.422;13.754;2023-08-06T14:26:47;9.40;;;4.57;;
14165;SDS011;7162;52.422;13.754;2023-08-06T14:29:14;7.13;;;4.30;;
14165;SDS011;7162;52.422;13.754;2023-08-06T14:31:41;6.10;;;3.93;;
14165;SDS011;7162;52.422;13.754;2023-08-06T14:34:08;6.57;;;3.93;;
14165;SDS011;7162;52.422;13.754;2023-08-06T14:36:35;4.80;;;3.90;;
14165;SDS011;7162;52.422;13.754;2023-08-06T14:39:04;5.13;;;3.40;;
14165;SDS011;7162;52.422;13.754;2023-08-06T14:41:31;6.33;;;3.70;;
14165;SDS011;7162;52.422;13.754;2023-08-06T14:43:58;9.20;;;4.10;;
14165;SDS011;7162;52.422;13.754;2023-08-06T14:46:25;4.20;;;3.47;;
14165;SDS011;7162;52.422;13.754;2023-08-06T14:48:52;9.80;;;4.00;;